Time,TemperatureF,DewpointF,PressureIn,WindDirection,WindDirectionDegrees,WindSpeedMPH,WindSpeedGustMPH,Humidity,HourlyPrecipIn,Conditions,Clouds,dailyrainin,SoftwareType,DateUTC
2013-02-16 00:00:00,29.6,22.1,27.20,NNW,348,11.1,12.0,73,0.00,--,--,0.00,awk and wget,2013-02-16 05:00:00,
2013-02-16 00:05:00,29.5,22.1,27.20,North,350,13.9,15.0,73,0.00,--,--,0.00,awk and wget,2013-02-16 05:05:00,
2013-02-16 00:10:00,29.4,22.0,27.20,North,350,6.1,15.0,73,0.00,--,--,0.00,awk and wget,2013-02-16 05:10:00,
2013-02-16 00:15:00,29.1,22.4,27.20,North,357,8.9,15.0,75,0.00,--,--,0.00,awk and wget,2013-02-16 05:15:00,
2013-02-16 00:20:00,29.0,22.7,27.19,North,351,3.9,14.1,77,0.00,--,--,0.00,awk and wget,2013-02-16 05:20:00,
2013-02-16 00:30:00,29.1,22.2,27.19,NNW,341,5.0,15.0,75,0.00,--,--,0.00,awk and wget,2013-02-16 05:30:00,
2013-02-16 00:40:00,29.1,21.9,27.19,NNW,338,13.7,19.0,74,0.00,--,--,0.00,awk and wget,2013-02-16 05:40:00,
2013-02-16 00:50:00,28.8,21.7,27.19,North,0,7.8,19.0,74,0.00,--,--,0.00,awk and wget,2013-02-16 05:50:00,
2013-02-16 01:00:00,28.5,21.1,27.19,NNW,341,4.4,18.6,73,0.00,--,--,0.00,awk and wget,2013-02-16 06:00:00,
2013-02-16 01:10:00,28.2,21.3,27.19,NNW,344,2.8,14.9,74,0.00,--,--,0.00,awk and wget,2013-02-16 06:10:00,
2013-02-16 01:20:00,28.2,21.2,27.19,NNW,348,7.1,13.2,74,0.00,--,--,0.00,awk and wget,2013-02-16 06:20:00,
2013-02-16 01:30:00,28.0,21.1,27.18,NE,37,1.6,12.4,75,0.00,--,--,0.00,awk and wget,2013-02-16 06:30:00,
2013-02-16 01:40:00,28.0,20.6,27.18,NNW,339,4.1,10.5,73,0.00,--,--,0.00,awk and wget,2013-02-16 06:40:00,
2013-02-16 01:50:00,28.1,19.3,27.18,North,1,7.2,8.5,68,0.00,--,--,0.00,awk and wget,2013-02-16 06:50:00,
2013-02-16 02:00:00,28.0,19.4,27.18,NNW,342,6.9,12.3,69,0.00,--,--,0.00,awk and wget,2013-02-16 07:00:00,
2013-02-16 02:10:00,27.7,19.7,27.17,North,357,6.2,14.0,71,0.00,--,--,0.00,awk and wget,2013-02-16 07:10:00,
2013-02-16 02:20:00,27.5,19.7,27.17,NNW,338,4.7,10.4,72,0.00,--,--,0.00,awk and wget,2013-02-16 07:20:00,
2013-02-16 02:30:00,27.1,20.0,27.17,NNW,341,3.3,10.3,74,0.00,--,--,0.00,awk and wget,2013-02-16 07:30:00,
2013-02-16 02:40:00,27.0,20.0,27.17,NNE,24,3.7,9.8,74,0.00,--,--,0.00,awk and wget,2013-02-16 07:40:00,
2013-02-16 02:50:00,26.8,19.8,27.17,NNW,341,3.0,8.0,74,0.00,--,--,0.00,awk and wget,2013-02-16 07:50:00,
2013-02-16 03:00:00,26.7,20.2,27.16,NE,41,1.7,6.0,76,0.00,--,--,0.00,awk and wget,2013-02-16 08:00:00,
2013-02-16 03:10:00,26.7,20.1,27.16,North,351,6.2,11.6,75,0.00,--,--,0.00,awk and wget,2013-02-16 08:10:00,
2013-02-16 03:20:00,26.6,19.8,27.16,NNW,343,5.1,11.7,75,0.00,--,--,0.00,awk and wget,2013-02-16 08:20:00,
2013-02-16 03:30:00,26.6,19.4,27.16,North,359,4.9,10.0,74,0.00,--,--,0.00,awk and wget,2013-02-16 08:30:00,
2013-02-16 03:40:00,26.5,19.5,27.16,NNW,341,4.4,13.8,74,0.00,--,--,0.00,awk and wget,2013-02-16 08:40:00,
2013-02-16 03:50:00,26.4,19.3,27.16,NNW,338,6.0,13.8,74,0.00,--,--,0.00,awk and wget,2013-02-16 08:50:00,
2013-02-16 04:00:00,26.5,18.8,27.16,NNE,23,5.7,13.1,72,0.00,--,--,0.00,awk and wget,2013-02-16 09:00:00,
2013-02-16 04:10:00,26.4,18.7,27.16,NNW,335,10.8,11.0,72,0.00,--,--,0.00,awk and wget,2013-02-16 09:10:00,
2013-02-16 04:20:00,26.1,18.5,27.16,North,351,2.5,15.3,72,0.00,--,--,0.00,awk and wget,2013-02-16 09:20:00,
2013-02-16 04:30:00,26.1,18.6,27.16,NNW,341,5.1,15.3,72,0.00,--,--,0.00,awk and wget,2013-02-16 09:30:00,
2013-02-16 04:40:00,26.0,18.4,27.16,NNW,341,4.7,11.5,72,0.00,--,--,0.00,awk and wget,2013-02-16 09:40:00,
2013-02-16 04:50:00,25.8,18.1,27.16,NNW,342,1.7,11.5,72,0.00,--,--,0.00,awk and wget,2013-02-16 09:50:00,
2013-02-16 05:00:00,25.7,18.4,27.15,East,82,0.4,8.5,73,0.00,--,--,0.00,awk and wget,2013-02-16 10:00:00,
2013-02-16 05:10:00,25.4,18.3,27.15,NNW,341,0.7,9.7,74,0.00,--,--,0.00,awk and wget,2013-02-16 10:10:00,
2013-02-16 05:20:00,25.4,18.2,27.16,NNE,13,1.1,10.0,73,0.00,--,--,0.00,awk and wget,2013-02-16 10:20:00,
2013-02-16 05:30:00,25.3,18.1,27.15,North,355,5.8,10.0,73,0.00,--,--,0.00,awk and wget,2013-02-16 10:30:00,
2013-02-16 05:40:00,25.4,16.6,27.15,NNW,339,9.4,9.7,68,0.00,--,--,0.00,awk and wget,2013-02-16 10:40:00,
2013-02-16 05:50:00,25.7,16.1,27.15,NNW,339,6.0,10.6,66,0.00,--,--,0.00,awk and wget,2013-02-16 10:50:00,
2013-02-16 05:55:00,25.5,16.4,27.15,NNW,336,6.5,27.1,68,0.00,--,--,0.00,awk and wget,2013-02-16 10:55:00,
2013-02-16 06:00:00,25.5,16.1,27.15,NNW,341,6.9,27.1,67,0.00,--,--,0.00,awk and wget,2013-02-16 11:00:00,
2013-02-16 06:10:00,25.4,16.4,27.15,NNW,339,4.2,17.6,68,0.00,--,--,0.00,awk and wget,2013-02-16 11:10:00,
2013-02-16 06:20:00,25.1,17.0,27.14,NE,35,2.4,17.6,70,0.00,--,--,0.00,awk and wget,2013-02-16 11:20:00,
2013-02-16 06:30:00,25.3,17.1,27.14,NNW,341,1.0,6.2,70,0.00,--,--,0.00,awk and wget,2013-02-16 11:30:00,
2013-02-16 06:40:00,25.0,17.2,27.14,NNW,341,0.0,6.7,71,0.00,--,--,0.00,awk and wget,2013-02-16 11:40:00,
2013-02-16 06:50:00,24.7,17.6,27.14,North,359,0.0,5.4,73,0.00,--,--,0.00,awk and wget,2013-02-16 11:50:00,
2013-02-16 07:00:00,24.7,17.6,27.13,NNW,341,1.4,4.9,73,0.00,--,--,0.00,awk and wget,2013-02-16 12:00:00,
2013-02-16 07:10:00,24.6,17.7,27.14,NNW,342,2.9,5.0,74,0.00,--,--,0.00,awk and wget,2013-02-16 12:10:00,
2013-02-16 07:20:00,24.5,18.6,27.14,NNW,344,2.4,5.1,77,0.00,--,--,0.00,awk and wget,2013-02-16 12:20:00,
2013-02-16 07:25:00,24.6,18.7,27.14,NNW,340,1.9,7.2,77,0.00,--,--,0.00,awk and wget,2013-02-16 12:25:00,
2013-02-16 07:30:00,24.5,18.6,27.14,NNW,342,1.4,7.4,77,0.00,--,--,0.00,awk and wget,2013-02-16 12:30:00,
2013-02-16 07:40:00,24.6,18.5,27.14,NNW,342,4.0,9.4,77,0.00,--,--,0.00,awk and wget,2013-02-16 12:40:00,
2013-02-16 07:50:00,25.0,19.0,27.14,NNW,341,4.1,8.6,77,0.00,--,--,0.00,awk and wget,2013-02-16 12:50:00,
2013-02-16 08:00:00,24.9,18.7,27.14,NNW,338,7.5,13.7,76,0.00,--,--,0.00,awk and wget,2013-02-16 13:00:00,
2013-02-16 08:10:00,24.8,18.3,27.14,North,3,9.4,17.2,75,0.00,--,--,0.00,awk and wget,2013-02-16 13:10:00,
2013-02-16 08:20:00,24.5,16.9,27.15,NNW,340,14.2,17.9,72,0.00,--,--,0.00,awk and wget,2013-02-16 13:20:00,
2013-02-16 08:30:00,24.4,16.6,27.15,NNW,341,10.9,17.3,71,0.00,--,--,0.00,awk and wget,2013-02-16 13:30:00,
2013-02-16 08:40:00,24.5,16.4,27.14,North,356,9.0,18.1,70,0.00,--,--,0.00,awk and wget,2013-02-16 13:40:00,
2013-02-16 08:50:00,24.7,16.3,27.14,NNW,341,10.7,16.5,69,0.00,--,--,0.00,awk and wget,2013-02-16 13:50:00,
2013-02-16 09:00:00,24.8,15.4,27.14,East,79,4.1,16.3,66,0.00,--,--,0.00,awk and wget,2013-02-16 14:00:00,
2013-02-16 09:10:00,24.9,15.1,27.14,NE,39,10.4,10.4,65,0.00,--,--,0.00,awk and wget,2013-02-16 14:10:00,
2013-02-16 09:20:00,24.9,15.0,27.14,NNW,340,6.3,12.1,65,0.00,--,--,0.00,awk and wget,2013-02-16 14:20:00,
2013-02-16 09:30:00,25.1,15.3,27.13,NE,36,6.3,13.0,65,0.00,--,--,0.00,awk and wget,2013-02-16 14:30:00,
2013-02-16 09:40:00,25.0,14.9,27.14,NNE,30,9.0,13.4,64,0.00,--,--,0.00,awk and wget,2013-02-16 14:40:00,
2013-02-16 09:50:00,25.1,14.9,27.14,NE,42,6.8,12.9,64,0.00,--,--,0.00,awk and wget,2013-02-16 14:50:00,
2013-02-16 10:00:00,26.0,15.4,27.13,NNE,24,5.3,13.4,63,0.00,--,--,0.00,awk and wget,2013-02-16 15:00:00,
2013-02-16 10:10:00,26.0,14.6,27.13,NNW,348,8.1,13.8,61,0.00,--,--,0.00,awk and wget,2013-02-16 15:10:00,
2013-02-16 10:20:00,26.0,14.6,27.12,NE,38,6.7,13.5,61,0.00,--,--,0.00,awk and wget,2013-02-16 15:20:00,
2013-02-16 10:30:00,25.8,13.7,27.13,NNW,335,3.9,14.6,59,0.00,--,--,0.00,awk and wget,2013-02-16 15:30:00,
2013-02-16 10:40:00,25.5,12.6,27.13,NNW,336,7.2,14.2,57,0.00,--,--,0.00,awk and wget,2013-02-16 15:40:00,
2013-02-16 10:50:00,25.5,12.7,27.12,NNW,346,9.3,13.6,57,0.00,--,--,0.00,awk and wget,2013-02-16 15:50:00,
2013-02-16 11:00:00,25.7,12.5,27.12,NNW,339,6.3,12.9,56,0.00,--,--,0.00,awk and wget,2013-02-16 16:00:00,
2013-02-16 11:10:00,25.9,11.7,27.12,NNW,340,5.3,16.6,54,0.00,--,--,0.00,awk and wget,2013-02-16 16:10:00,
2013-02-16 11:20:00,26.2,12.5,27.12,NNW,336,4.8,12.3,55,0.00,--,--,0.00,awk and wget,2013-02-16 16:20:00,
2013-02-16 11:30:00,26.6,11.7,27.11,North,349,6.3,12.3,52,0.00,--,--,0.00,awk and wget,2013-02-16 16:30:00,
2013-02-16 11:40:00,26.4,12.1,27.11,NE,36,7.3,12.9,54,0.00,--,--,0.00,awk and wget,2013-02-16 16:40:00,
2013-02-16 11:50:00,26.4,12.8,27.11,NE,42,10.8,15.6,56,0.00,--,--,0.00,awk and wget,2013-02-16 16:50:00,
2013-02-16 12:00:00,26.4,12.5,27.11,NE,40,7.5,17.1,55,0.00,--,--,0.00,awk and wget,2013-02-16 17:00:00,
2013-02-16 12:10:00,26.6,11.8,27.11,NNW,333,9.0,15.2,53,0.00,--,--,0.00,awk and wget,2013-02-16 17:10:00,
2013-02-16 12:20:00,26.1,11.1,27.11,NNW,338,5.8,15.4,52,0.00,--,--,0.00,awk and wget,2013-02-16 17:20:00,
2013-02-16 12:30:00,27.1,11.2,27.10,NNW,336,4.8,14.4,50,0.00,--,--,0.00,awk and wget,2013-02-16 17:30:00,
2013-02-16 12:40:00,27.3,12.2,27.10,NNE,28,4.4,15.0,52,0.00,--,--,0.00,awk and wget,2013-02-16 17:40:00,
2013-02-16 12:50:00,27.3,11.5,27.09,NNW,339,6.3,15.0,51,0.00,--,--,0.00,awk and wget,2013-02-16 17:50:00,
2013-02-16 13:00:00,26.9,12.8,27.08,NE,47,5.5,16.8,54,0.00,--,--,0.00,awk and wget,2013-02-16 18:00:00,
2013-02-16 13:10:00,26.4,11.9,27.08,NNW,337,6.8,16.8,53,0.00,--,--,0.00,awk and wget,2013-02-16 18:10:00,
2013-02-16 13:20:00,25.8,12.1,27.09,North,353,8.9,16.3,55,0.00,--,--,0.00,awk and wget,2013-02-16 18:20:00,
2013-02-16 13:30:00,25.5,11.5,27.07,NNW,335,7.0,15.2,54,0.00,--,--,0.00,awk and wget,2013-02-16 18:30:00,
2013-02-16 13:40:00,25.8,11.4,27.08,NNW,338,8.1,15.2,53,0.00,--,--,0.00,awk and wget,2013-02-16 18:40:00,
2013-02-16 13:50:00,25.6,11.3,27.08,NNW,338,8.5,14.8,54,0.00,--,--,0.00,awk and wget,2013-02-16 18:50:00,
2013-02-16 14:00:00,25.5,11.3,27.08,North,349,11.3,17.6,54,0.00,--,--,0.00,awk and wget,2013-02-16 19:00:00,
2013-02-16 14:10:00,25.1,11.6,27.08,North,1,7.9,17.6,55,0.00,--,--,0.00,awk and wget,2013-02-16 19:10:00,
2013-02-16 14:20:00,25.0,11.4,27.08,North,356,5.8,15.9,55,0.00,--,--,0.00,awk and wget,2013-02-16 19:20:00,
2013-02-16 14:30:00,25.2,10.9,27.07,NNW,339,10.8,18.6,54,0.00,--,--,0.00,awk and wget,2013-02-16 19:30:00,
2013-02-16 14:40:00,25.2,11.3,27.08,NNW,333,11.1,18.6,54,0.00,--,--,0.00,awk and wget,2013-02-16 19:40:00,
2013-02-16 14:50:00,24.8,11.6,27.07,NNW,346,11.4,20.6,56,0.00,--,--,0.00,awk and wget,2013-02-16 19:50:00,
2013-02-16 14:55:00,24.8,10.8,27.07,NNW,344,12.3,35.2,54,0.00,--,--,0.00,awk and wget,2013-02-16 19:55:00,
2013-02-16 15:00:00,25.1,10.7,27.08,North,8,11.2,35.2,53,0.00,--,--,0.00,awk and wget,2013-02-16 20:00:00,
2013-02-16 15:10:00,24.5,11.0,27.08,North,7,10.3,21.6,55,0.00,--,--,0.00,awk and wget,2013-02-16 20:10:00,
2013-02-16 15:20:00,24.7,11.4,27.08,North,359,6.1,21.6,56,0.00,--,--,0.00,awk and wget,2013-02-16 20:20:00,
2013-02-16 15:30:00,24.1,11.0,27.08,NNW,345,12.0,23.2,56,0.00,--,--,0.00,awk and wget,2013-02-16 20:30:00,
2013-02-16 15:40:00,23.9,9.8,27.08,NNE,12,8.6,23.2,54,0.00,--,--,0.00,awk and wget,2013-02-16 20:40:00,
2013-02-16 15:50:00,23.9,9.3,27.07,NNW,334,9.3,19.8,53,0.00,--,--,0.00,awk and wget,2013-02-16 20:50:00,
2013-02-16 16:00:00,24.4,9.6,27.08,NNW,334,5.0,32.3,52,0.00,--,--,0.00,awk and wget,2013-02-16 21:00:00,
2013-02-16 16:10:00,23.9,10.3,27.09,NNW,345,10.9,18.9,55,0.00,--,--,0.00,awk and wget,2013-02-16 21:10:00,
2013-02-16 16:20:00,23.5,10.3,27.09,NNW,334,10.5,20.6,56,0.00,--,--,0.00,awk and wget,2013-02-16 21:20:00,
2013-02-16 16:30:00,23.6,9.8,27.09,North,7,4.2,20.6,55,0.00,--,--,0.00,awk and wget,2013-02-16 21:30:00,
2013-02-16 16:40:00,23.9,9.5,27.08,NNW,339,4.1,19.8,53,0.00,--,--,0.00,awk and wget,2013-02-16 21:40:00,
2013-02-16 16:50:00,23.6,10.2,27.09,NNW,338,4.9,18.5,56,0.00,--,--,0.00,awk and wget,2013-02-16 21:50:00,
2013-02-16 17:00:00,23.3,9.3,27.09,NNW,342,12.7,17.2,54,0.00,--,--,0.00,awk and wget,2013-02-16 22:00:00,
2013-02-16 17:10:00,23.6,9.8,27.09,North,349,3.4,17.2,55,0.00,--,--,0.00,awk and wget,2013-02-16 22:10:00,
2013-02-16 17:20:00,23.6,9.3,27.09,NNW,337,5.5,21.1,53,0.00,--,--,0.00,awk and wget,2013-02-16 22:20:00,
2013-02-16 17:30:00,23.0,8.4,27.08,NNE,13,8.9,21.1,53,0.00,--,--,0.00,awk and wget,2013-02-16 22:30:00,
2013-02-16 17:40:00,22.8,8.0,27.09,North,353,6.8,14.3,52,0.00,--,--,0.00,awk and wget,2013-02-16 22:40:00,
2013-02-16 17:50:00,22.3,8.3,27.08,NNW,337,6.3,15.1,54,0.00,--,--,0.00,awk and wget,2013-02-16 22:50:00,
2013-02-16 18:00:00,22.1,9.1,27.09,North,353,8.2,14.0,56,0.00,--,--,0.00,awk and wget,2013-02-16 23:00:00,
2013-02-16 18:10:00,21.8,10.1,27.08,North,349,8.4,15.9,59,0.00,--,--,0.00,awk and wget,2013-02-16 23:10:00,
2013-02-16 18:20:00,21.8,10.9,27.09,NE,43,6.7,14.9,62,0.00,--,--,0.00,awk and wget,2013-02-16 23:20:00,
2013-02-16 18:30:00,21.0,12.9,27.09,NNW,340,1.7,21.0,70,0.00,--,--,0.00,awk and wget,2013-02-16 23:30:00,
2013-02-16 18:40:00,20.6,12.2,27.09,NNW,338,7.0,14.7,69,0.00,--,--,0.00,awk and wget,2013-02-16 23:40:00,
2013-02-16 18:50:00,20.9,10.1,27.09,NNW,339,9.1,23.0,62,0.00,--,--,0.00,awk and wget,2013-02-16 23:50:00,
2013-02-16 19:00:00,20.4,10.1,27.09,NNW,348,8.9,23.0,63,0.00,--,--,0.00,awk and wget,2013-02-17 00:00:00,
2013-02-16 19:10:00,20.3,10.2,27.09,NNW,335,8.9,18.3,64,0.00,--,--,0.00,awk and wget,2013-02-17 00:10:00,
2013-02-16 19:20:00,20.1,9.9,27.09,NNW,341,8.5,16.0,64,0.00,--,--,0.00,awk and wget,2013-02-17 00:20:00,
2013-02-16 19:25:00,20.0,9.8,27.09,NNE,31,5.0,16.0,64,0.00,--,--,0.00,awk and wget,2013-02-17 00:25:00,
2013-02-16 19:30:00,19.8,9.6,27.09,NNW,336,10.3,16.0,63,0.00,--,--,0.00,awk and wget,2013-02-17 00:30:00,
2013-02-16 19:40:00,19.8,9.5,27.09,North,350,5.0,14.6,63,0.00,--,--,0.00,awk and wget,2013-02-17 00:40:00,
2013-02-16 19:50:00,19.5,9.5,27.09,NE,34,4.2,11.9,64,0.00,--,--,0.00,awk and wget,2013-02-17 00:50:00,
2013-02-16 20:00:00,19.7,9.4,27.09,NE,44,6.3,12.2,63,0.00,--,--,0.00,awk and wget,2013-02-17 01:00:00,
2013-02-16 20:10:00,19.9,9.8,27.09,NNW,346,3.7,13.8,64,0.00,--,--,0.00,awk and wget,2013-02-17 01:10:00,
2013-02-16 20:20:00,19.9,9.6,27.08,North,354,7.5,15.8,63,0.00,--,--,0.00,awk and wget,2013-02-17 01:20:00,
2013-02-16 20:30:00,19.9,9.8,27.08,NNE,32,8.1,15.8,64,0.00,--,--,0.00,awk and wget,2013-02-17 01:30:00,
2013-02-16 20:40:00,19.9,10.0,27.08,North,352,5.1,12.8,65,0.00,--,--,0.00,awk and wget,2013-02-17 01:40:00,
2013-02-16 20:50:00,19.8,9.8,27.08,NNW,336,10.8,14.6,64,0.00,--,--,0.00,awk and wget,2013-02-17 01:50:00,
2013-02-16 21:00:00,19.7,9.3,27.08,North,351,4.3,14.6,63,0.00,--,--,0.00,awk and wget,2013-02-17 02:00:00,
2013-02-16 21:10:00,19.3,9.2,27.08,ENE,69,5.4,16.8,63,0.00,--,--,0.00,awk and wget,2013-02-17 02:10:00,
2013-02-16 21:20:00,19.3,9.2,27.08,NNW,342,7.0,15.6,63,0.00,--,--,0.00,awk and wget,2013-02-17 02:20:00,
2013-02-16 21:30:00,19.2,9.1,27.08,NNW,337,4.1,18.5,64,0.00,--,--,0.00,awk and wget,2013-02-17 02:30:00,
2013-02-16 21:40:00,19.3,9.0,27.08,NE,42,5.1,21.6,63,0.00,--,--,0.00,awk and wget,2013-02-17 02:40:00,
2013-02-16 21:50:00,19.2,9.0,27.08,North,350,4.9,21.6,63,0.00,--,--,0.00,awk and wget,2013-02-17 02:50:00,
2013-02-16 22:00:00,19.1,8.7,27.08,NNE,20,5.8,15.0,63,0.00,--,--,0.00,awk and wget,2013-02-17 03:00:00,
2013-02-16 22:10:00,19.3,8.6,27.08,NNW,342,6.7,19.5,62,0.00,--,--,0.00,awk and wget,2013-02-17 03:10:00,
2013-02-16 22:15:00,19.3,8.4,27.08,NE,37,4.3,19.5,61,0.00,--,--,0.00,awk and wget,2013-02-17 03:15:00,
2013-02-16 22:20:00,19.2,8.6,27.08,NNE,23,8.4,19.5,62,0.00,--,--,0.00,awk and wget,2013-02-17 03:20:00,
2013-02-16 22:30:00,19.1,8.5,27.08,NNW,342,9.1,21.8,62,0.00,--,--,0.00,awk and wget,2013-02-17 03:30:00,
2013-02-16 22:40:00,19.2,8.5,27.08,NNE,19,8.0,13.1,62,0.00,--,--,0.00,awk and wget,2013-02-17 03:40:00,
2013-02-16 22:50:00,19.1,8.4,27.07,NNW,348,4.8,12.6,62,0.00,--,--,0.00,awk and wget,2013-02-17 03:50:00,
2013-02-16 23:00:00,18.9,8.5,27.07,North,351,3.6,9.3,63,0.00,--,--,0.00,awk and wget,2013-02-17 04:00:00,
2013-02-16 23:10:00,19.0,8.4,27.07,NNW,342,3.7,9.4,62,0.00,--,--,0.00,awk and wget,2013-02-17 04:10:00,
2013-02-16 23:20:00,18.8,8.9,27.07,NNW,338,5.4,16.5,64,0.00,--,--,0.00,awk and wget,2013-02-17 04:20:00,
2013-02-16 23:30:00,18.9,8.8,27.07,NNW,342,10.9,27.4,64,0.00,--,--,0.00,awk and wget,2013-02-17 04:30:00,
2013-02-16 23:40:00,18.8,8.7,27.07,NNW,337,21.7,27.4,64,0.00,--,--,0.00,awk and wget,2013-02-17 04:40:00,
2013-02-16 23:50:00,18.7,9.3,27.06,NNW,345,5.1,22.5,66,0.00,--,--,0.00,awk and wget,2013-02-17 04:50:00,